Sansom Park, Texas
Current Conditions -  °F | °C
As of 10:52 AM on Thursday 23 Oct 2014 (Local Time) from KNFW Reporting Station
Overcast Overcast  
Wind Chill: 74°   Ceiling: 8000
Heat Index: 74°   Visibility: 10mi
Dew Point: 54°   Wind: 9mph
Humidity: 50%   Direction: 150°SSE
Pressure: 30.21"   Gusts: NA
Location:  32.7763°N, 97.4092°W
Report Text: KNFW 231552Z 15008KT 10SM FEW049 OVC080 23/12 A3021 RMK AO2 SLP211 T02330122 CHINO N VISNO N $
Loading
Personal Weather Stations






























Interactive Weather Map
Tropical Storm Tracking
New forecast layout! Learn more

10-Day Weather Forecast

Advertisements
Track Severe Weather on mobile